sensor_id;sensor_type;location;lat;lon;timestamp;temperature;humidity
17423;DHT22;8829;47.932;7.810;2022-07-17T00:02:18;19.20;90.80
17423;DHT22;8829;47.932;7.810;2022-07-17T00:04:45;19.10;91.30
17423;DHT22;8829;47.932;7.810;2022-07-17T00:07:12;18.70;91.90
17423;DHT22;8829;47.932;7.810;2022-07-17T00:09:40;18.60;92.30
17423;DHT22;8829;47.932;7.810;2022-07-17T00:12:07;18.50;92.70
17423;DHT22;8829;47.932;7.810;2022-07-17T00:14:34;18.30;92.90
17423;DHT22;8829;47.932;7.810;2022-07-17T00:17:00;18.20;93.40
17423;DHT22;8829;47.932;7.810;2022-07-17T00:19:27;18.20;91.80
17423;DHT22;8829;47.932;7.810;2022-07-17T00:21:54;18.20;93.10
17423;DHT22;8829;47.932;7.810;2022-07-17T00:24:21;18.10;93.70
17423;DHT22;8829;47.932;7.810;2022-07-17T00:26:51;18.20;93.30
17423;DHT22;8829;47.932;7.810;2022-07-17T00:29:18;18.10;93.70
17423;DHT22;8829;47.932;7.810;2022-07-17T00:31:46;18.00;94.20
17423;DHT22;8829;47.932;7.810;2022-07-17T00:34:13;17.70;93.80
17423;DHT22;8829;47.932;7.810;2022-07-17T00:36:39;17.60;94.30
17423;DHT22;8829;47.932;7.810;2022-07-17T00:39:06;17.60;94.20
17423;DHT22;8829;47.932;7.810;2022-07-17T00:41:33;17.50;94.20
17423;DHT22;8829;47.932;7.810;2022-07-17T00:44:05;17.50;94.90
17423;DHT22;8829;47.932;7.810;2022-07-17T00:46:33;17.40;95.50
17423;DHT22;8829;47.932;7.810;2022-07-17T00:48:59;17.30;95.90
17423;DHT22;8829;47.932;7.810;2022-07-17T00:51:26;17.20;96.00
17423;DHT22;8829;47.932;7.810;2022-07-17T00:53:55;17.10;95.40
17423;DHT22;8829;47.932;7.810;2022-07-17T00:56:24;17.10;95.20
17423;DHT22;8829;47.932;7.810;2022-07-17T00:58:51;17.10;95.60
17423;DHT22;8829;47.932;7.810;2022-07-17T01:01:19;17.00;95.80
17423;DHT22;8829;47.932;7.810;2022-07-17T01:03:46;16.90;95.70
17423;DHT22;8829;47.932;7.810;2022-07-17T01:06:13;16.80;96.40
17423;DHT22;8829;47.932;7.810;2022-07-17T01:08:40;16.60;96.80
17423;DHT22;8829;47.932;7.810;2022-07-17T01:11:08;16.50;97.20
17423;DHT22;8829;47.932;7.810;2022-07-17T01:13:35;16.20;97.90
17423;DHT22;8829;47.932;7.810;2022-07-17T01:16:02;16.30;97.60
17423;DHT22;8829;47.932;7.810;2022-07-17T01:18:30;16.30;97.40
17423;DHT22;8829;47.932;7.810;2022-07-17T01:21:03;16.40;97.50
17423;DHT22;8829;47.932;7.810;2022-07-17T01:23:30;16.40;97.70
17423;DHT22;8829;47.932;7.810;2022-07-17T01:25:57;16.30;97.80
17423;DHT22;8829;47.932;7.810;2022-07-17T01:28:24;16.30;97.90
17423;DHT22;8829;47.932;7.810;2022-07-17T01:30:52;16.20;98.10
17423;DHT22;8829;47.932;7.810;2022-07-17T01:33:19;16.20;98.40
17423;DHT22;8829;47.932;7.810;2022-07-17T01:35:46;16.10;98.20
17423;DHT22;8829;47.932;7.810;2022-07-17T01:38:14;16.00;98.50
17423;DHT22;8829;47.932;7.810;2022-07-17T01:40:41;15.90;99.00
17423;DHT22;8829;47.932;7.810;2022-07-17T01:43:08;15.90;98.90
17423;DHT22;8829;47.932;7.810;2022-07-17T01:45:35;15.90;99.00
17423;DHT22;8829;47.932;7.810;2022-07-17T01:48:02;15.90;98.90
17423;DHT22;8829;47.932;7.810;2022-07-17T01:50:29;15.90;99.00
17423;DHT22;8829;47.932;7.810;2022-07-17T01:52:56;15.90;99.20
17423;DHT22;8829;47.932;7.810;2022-07-17T01:55:24;15.90;99.30
17423;DHT22;8829;47.932;7.810;2022-07-17T01:57:51;15.90;99.10
17423;DHT22;8829;47.932;7.810;2022-07-17T02:00:18;15.90;99.30
17423;DHT22;8829;47.932;7.810;2022-07-17T02:02:48;15.70;99.50
17423;DHT22;8829;47.932;7.810;2022-07-17T02:05:15;15.60;99.90
17423;DHT22;8829;47.932;7.810;2022-07-17T02:07:42;15.60;99.90
17423;DHT22;8829;47.932;7.810;2022-07-17T02:10:10;15.60;99.80
17423;DHT22;8829;47.932;7.810;2022-07-17T02:12:41;15.60;99.80
17423;DHT22;8829;47.932;7.810;2022-07-17T02:15:08;15.70;99.70
17423;DHT22;8829;47.932;7.810;2022-07-17T02:17:35;15.70;99.90
17423;DHT22;8829;47.932;7.810;2022-07-17T02:20:02;15.70;99.90
17423;DHT22;8829;47.932;7.810;2022-07-17T02:22:29;15.60;99.90
17423;DHT22;8829;47.932;7.810;2022-07-17T02:24:56;15.50;99.90
17423;DHT22;8829;47.932;7.810;2022-07-17T02:27:23;15.50;99.90
17423;DHT22;8829;47.932;7.810;2022-07-17T02:29:51;15.50;99.90
17423;DHT22;8829;47.932;7.810;2022-07-17T02:32:18;15.50;99.90
17423;DHT22;8829;47.932;7.810;2022-07-17T02:34:44;15.40;99.90
17423;DHT22;8829;47.932;7.810;2022-07-17T02:37:11;15.40;99.90
17423;DHT22;8829;47.932;7.810;2022-07-17T02:39:38;15.30;99.90
17423;DHT22;8829;47.932;7.810;2022-07-17T02:42:18;15.40;99.90
17423;DHT22;8829;47.932;7.810;2022-07-17T02:44:44;15.30;99.90
17423;DHT22;8829;47.932;7.810;2022-07-17T02:47:13;15.20;99.90
17423;DHT22;8829;47.932;7.810;2022-07-17T02:49:40;15.20;99.90
17423;DHT22;8829;47.932;7.810;2022-07-17T02:52:07;15.20;99.90
17423;DHT22;8829;47.932;7.810;2022-07-17T02:54:34;15.20;99.90
17423;DHT22;8829;47.932;7.810;2022-07-17T02:57:01;15.10;99.90
17423;DHT22;8829;47.932;7.810;2022-07-17T02:59:28;15.10;99.90
17423;DHT22;8829;47.932;7.810;2022-07-17T03:01:55;15.00;99.90
17423;DHT22;8829;47.932;7.810;2022-07-17T03:04:23;15.00;99.90
17423;DHT22;8829;47.932;7.810;2022-07-17T03:06:50;15.10;99.90
17423;DHT22;8829;47.932;7.810;2022-07-17T03:09:17;15.00;99.90
17423;DHT22;8829;47.932;7.810;2022-07-17T03:11:44;15.00;99.90
17423;DHT22;8829;47.932;7.810;2022-07-17T03:14:11;14.90;99.90
17423;DHT22;8829;47.932;7.810;2022-07-17T03:16:37;14.90;99.90
17423;DHT22;8829;47.932;7.810;2022-07-17T03:19:04;14.80;99.90
17423;DHT22;8829;47.932;7.810;2022-07-17T03:21:32;14.80;99.90
17423;DHT22;8829;47.932;7.810;2022-07-17T03:23:59;14.80;99.90
17423;DHT22;8829;47.932;7.810;2022-07-17T03:26:26;14.80;99.90
17423;DHT22;8829;47.932;7.810;2022-07-17T03:28:53;14.80;99.90
17423;DHT22;8829;47.932;7.810;2022-07-17T03:31:20;14.90;99.90
17423;DHT22;8829;47.932;7.810;2022-07-17T03:33:47;14.80;99.90
17423;DHT22;8829;47.932;7.810;2022-07-17T03:36:13;14.60;99.90
17423;DHT22;8829;47.932;7.810;2022-07-17T03:38:42;14.60;99.90
17423;DHT22;8829;47.932;7.810;2022-07-17T03:41:09;14.60;99.90
17423;DHT22;8829;47.932;7.810;2022-07-17T03:43:35;14.70;99.90
17423;DHT22;8829;47.932;7.810;2022-07-17T03:46:02;14.70;99.90
17423;DHT22;8829;47.932;7.810;2022-07-17T03:48:29;14.70;99.90
17423;DHT22;8829;47.932;7.810;2022-07-17T03:50:56;14.70;99.90
17423;DHT22;8829;47.932;7.810;2022-07-17T03:53:23;14.70;99.90
17423;DHT22;8829;47.932;7.810;2022-07-17T03:55:51;14.70;99.90
17423;DHT22;8829;47.932;7.810;2022-07-17T03:58:18;14.60;99.90
17423;DHT22;8829;47.932;7.810;2022-07-17T04:00:45;14.70;99.90
17423;DHT22;8829;47.932;7.810;2022-07-17T04:03:11;14.70;99.90
17423;DHT22;8829;47.932;7.810;2022-07-17T04:05:38;14.70;99.90
17423;DHT22;8829;47.932;7.810;2022-07-17T04:08:05;14.60;99.90
17423;DHT22;8829;47.932;7.810;2022-07-17T04:10:32;14.50;99.90
17423;DHT22;8829;47.932;7.810;2022-07-17T04:13:02;14.60;99.90
17423;DHT22;8829;47.932;7.810;2022-07-17T04:15:29;14.60;99.90
17423;DHT22;8829;47.932;7.810;2022-07-17T04:18:10;14.60;99.90
17423;DHT22;8829;47.932;7.810;2022-07-17T04:20:36;14.60;99.90
17423;DHT22;8829;47.932;7.810;2022-07-17T04:23:03;14.50;99.90
17423;DHT22;8829;47.932;7.810;2022-07-17T04:25:31;14.50;99.90
17423;DHT22;8829;47.932;7.810;2022-07-17T04:27:57;14.50;99.90
17423;DHT22;8829;47.932;7.810;2022-07-17T04:30:26;14.50;99.90
17423;DHT22;8829;47.932;7.810;2022-07-17T04:32:53;14.50;99.90
17423;DHT22;8829;47.932;7.810;2022-07-17T04:35:20;14.40;99.90
17423;DHT22;8829;47.932;7.810;2022-07-17T04:37:46;14.50;99.90
17423;DHT22;8829;47.932;7.810;2022-07-17T04:40:13;14.50;99.90
17423;DHT22;8829;47.932;7.810;2022-07-17T04:42:40;14.50;99.90
17423;DHT22;8829;47.932;7.810;2022-07-17T04:45:09;14.50;99.90
17423;DHT22;8829;47.932;7.810;2022-07-17T04:47:37;14.50;99.90
17423;DHT22;8829;47.932;7.810;2022-07-17T04:50:05;14.50;99.90
17423;DHT22;8829;47.932;7.810;2022-07-17T04:52:32;14.50;99.90
17423;DHT22;8829;47.932;7.810;2022-07-17T04:54:59;14.50;99.90
17423;DHT22;8829;47.932;7.810;2022-07-17T04:57:26;14.40;99.90
17423;DHT22;8829;47.932;7.810;2022-07-17T04:59:52;14.40;99.90
17423;DHT22;8829;47.932;7.810;2022-07-17T05:02:19;14.30;99.90
17423;DHT22;8829;47.932;7.810;2022-07-17T05:04:47;14.40;99.90
17423;DHT22;8829;47.932;7.810;2022-07-17T05:07:14;14.50;99.90
17423;DHT22;8829;47.932;7.810;2022-07-17T05:09:41;14.40;99.90
17423;DHT22;8829;47.932;7.810;2022-07-17T05:12:08;14.50;99.90
17423;DHT22;8829;47.932;7.810;2022-07-17T05:14:35;14.60;99.90
17423;DHT22;8829;47.932;7.810;2022-07-17T05:17:02;14.70;99.90
17423;DHT22;8829;47.932;7.810;2022-07-17T05:19:29;14.70;99.90
17423;DHT22;8829;47.932;7.810;2022-07-17T05:21:57;14.60;99.90
17423;DHT22;8829;47.932;7.810;2022-07-17T05:24:24;14.70;99.90
17423;DHT22;8829;47.932;7.810;2022-07-17T05:26:51;14.60;99.90
17423;DHT22;8829;47.932;7.810;2022-07-17T05:29:18;14.60;99.90
17423;DHT22;8829;47.932;7.810;2022-07-17T05:31:44;14.70;99.90
17423;DHT22;8829;47.932;7.810;2022-07-17T05:34:12;15.20;99.90
17423;DHT22;8829;47.932;7.810;2022-07-17T05:36:38;15.80;99.90
17423;DHT22;8829;47.932;7.810;2022-07-17T05:39:07;16.40;99.90
17423;DHT22;8829;47.932;7.810;2022-07-17T05:41:33;16.60;99.90
17423;DHT22;8829;47.932;7.810;2022-07-17T05:44:01;17.10;99.90
17423;DHT22;8829;47.932;7.810;2022-07-17T05:46:27;17.80;99.90
17423;DHT22;8829;47.932;7.810;2022-07-17T05:48:54;18.60;99.90
17423;DHT22;8829;47.932;7.810;2022-07-17T05:51:21;19.20;99.90
17423;DHT22;8829;47.932;7.810;2022-07-17T05:53:48;19.30;99.90
17423;DHT22;8829;47.932;7.810;2022-07-17T05:56:16;19.90;99.90
17423;DHT22;8829;47.932;7.810;2022-07-17T05:58:43;20.20;99.90
17423;DHT22;8829;47.932;7.810;2022-07-17T06:01:10;20.60;99.10
17423;DHT22;8829;47.932;7.810;2022-07-17T06:03:37;21.20;98.70
17423;DHT22;8829;47.932;7.810;2022-07-17T06:06:04;21.40;96.90
17423;DHT22;8829;47.932;7.810;2022-07-17T06:08:31;21.20;96.40
17423;DHT22;8829;47.932;7.810;2022-07-17T06:10:58;21.30;96.20
17423;DHT22;8829;47.932;7.810;2022-07-17T06:13:26;21.40;95.50
17423;DHT22;8829;47.932;7.810;2022-07-17T06:15:53;21.40;95.50
17423;DHT22;8829;47.932;7.810;2022-07-17T06:18:21;21.70;94.70
17423;DHT22;8829;47.932;7.810;2022-07-17T06:20:48;21.90;95.50
17423;DHT22;8829;47.932;7.810;2022-07-17T06:23:15;22.20;95.30
17423;DHT22;8829;47.932;7.810;2022-07-17T06:25:42;22.60;94.70
17423;DHT22;8829;47.932;7.810;2022-07-17T06:28:08;22.80;94.20
17423;DHT22;8829;47.932;7.810;2022-07-17T06:30:37;23.00;93.80
17423;DHT22;8829;47.932;7.810;2022-07-17T06:33:04;23.00;94.20
17423;DHT22;8829;47.932;7.810;2022-07-17T06:35:30;23.30;93.40
17423;DHT22;8829;47.932;7.810;2022-07-17T06:37:59;23.60;92.70
17423;DHT22;8829;47.932;7.810;2022-07-17T06:40:28;23.80;92.00
17423;DHT22;8829;47.932;7.810;2022-07-17T06:42:55;24.10;91.90
17423;DHT22;8829;47.932;7.810;2022-07-17T06:45:22;24.20;91.60
17423;DHT22;8829;47.932;7.810;2022-07-17T06:47:50;24.20;91.00
17423;DHT22;8829;47.932;7.810;2022-07-17T06:50:17;24.20;91.20
17423;DHT22;8829;47.932;7.810;2022-07-17T06:52:43;24.10;91.20
17423;DHT22;8829;47.932;7.810;2022-07-17T06:55:10;24.20;90.10
17423;DHT22;8829;47.932;7.810;2022-07-17T06:57:37;24.70;90.10
17423;DHT22;8829;47.932;7.810;2022-07-17T07:00:05;24.70;90.10
17423;DHT22;8829;47.932;7.810;2022-07-17T07:02:34;25.30;88.30
17423;DHT22;8829;47.932;7.810;2022-07-17T07:05:02;25.30;88.20
17423;DHT22;8829;47.932;7.810;2022-07-17T07:07:30;25.60;88.00
17423;DHT22;8829;47.932;7.810;2022-07-17T07:09:56;25.70;88.50
17423;DHT22;8829;47.932;7.810;2022-07-17T07:12:23;25.70;89.70
17423;DHT22;8829;47.932;7.810;2022-07-17T07:14:50;25.80;89.30
17423;DHT22;8829;47.932;7.810;2022-07-17T07:17:17;25.50;89.20
17423;DHT22;8829;47.932;7.810;2022-07-17T07:19:45;25.60;88.60
17423;DHT22;8829;47.932;7.810;2022-07-17T07:22:13;25.80;88.10
17423;DHT22;8829;47.932;7.810;2022-07-17T07:24:40;25.40;87.80
17423;DHT22;8829;47.932;7.810;2022-07-17T07:27:06;25.50;88.10
17423;DHT22;8829;47.932;7.810;2022-07-17T07:29:33;26.00;87.70
17423;DHT22;8829;47.932;7.810;2022-07-17T07:32:00;26.80;86.10
17423;DHT22;8829;47.932;7.810;2022-07-17T07:34:27;26.90;86.30
17423;DHT22;8829;47.932;7.810;2022-07-17T07:36:54;26.60;85.50
17423;DHT22;8829;47.932;7.810;2022-07-17T07:39:22;26.80;83.90
17423;DHT22;8829;47.932;7.810;2022-07-17T07:41:49;27.00;83.40
17423;DHT22;8829;47.932;7.810;2022-07-17T07:44:16;27.30;83.50
17423;DHT22;8829;47.932;7.810;2022-07-17T07:46:43;26.70;82.60
17423;DHT22;8829;47.932;7.810;2022-07-17T07:49:10;26.00;84.50
17423;DHT22;8829;47.932;7.810;2022-07-17T07:51:37;25.20;84.80
17423;DHT22;8829;47.932;7.810;2022-07-17T07:54:04;25.10;85.40
17423;DHT22;8829;47.932;7.810;2022-07-17T07:56:32;24.50;86.20
17423;DHT22;8829;47.932;7.810;2022-07-17T07:58:59;24.20;87.80
17423;DHT22;8829;47.932;7.810;2022-07-17T08:01:26;24.40;88.10
17423;DHT22;8829;47.932;7.810;2022-07-17T08:03:53;24.60;88.50
17423;DHT22;8829;47.932;7.810;2022-07-17T08:06:20;24.30;88.80
17423;DHT22;8829;47.932;7.810;2022-07-17T08:08:46;24.30;90.00
17423;DHT22;8829;47.932;7.810;2022-07-17T08:11:13;25.20;87.40
17423;DHT22;8829;47.932;7.810;2022-07-17T08:13:42;25.60;84.40
17423;DHT22;8829;47.932;7.810;2022-07-17T08:16:09;25.30;85.50
17423;DHT22;8829;47.932;7.810;2022-07-17T08:18:36;24.70;86.20
17423;DHT22;8829;47.932;7.810;2022-07-17T08:21:04;24.80;87.00
17423;DHT22;8829;47.932;7.810;2022-07-17T08:23:30;25.40;86.20
17423;DHT22;8829;47.932;7.810;2022-07-17T08:25:57;25.60;85.20
17423;DHT22;8829;47.932;7.810;2022-07-17T08:28:24;25.20;86.60
17423;DHT22;8829;47.932;7.810;2022-07-17T08:30:52;25.80;83.70
17423;DHT22;8829;47.932;7.810;2022-07-17T08:33:19;25.50;85.50
17423;DHT22;8829;47.932;7.810;2022-07-17T08:35:46;25.40;85.30
17423;DHT22;8829;47.932;7.810;2022-07-17T08:38:13;25.10;85.60
17423;DHT22;8829;47.932;7.810;2022-07-17T08:40:40;24.90;87.30
17423;DHT22;8829;47.932;7.810;2022-07-17T08:43:09;25.00;86.70
17423;DHT22;8829;47.932;7.810;2022-07-17T08:45:39;24.70;88.20
17423;DHT22;8829;47.932;7.810;2022-07-17T08:48:12;25.00;86.40
17423;DHT22;8829;47.932;7.810;2022-07-17T08:50:40;25.00;86.40
17423;DHT22;8829;47.932;7.810;2022-07-17T08:53:07;24.90;87.50
17423;DHT22;8829;47.932;7.810;2022-07-17T08:55:34;25.10;86.80
17423;DHT22;8829;47.932;7.810;2022-07-17T08:58:01;25.30;85.80
17423;DHT22;8829;47.932;7.810;2022-07-17T09:00:30;26.00;84.70
17423;DHT22;8829;47.932;7.810;2022-07-17T09:02:59;25.90;83.90
17423;DHT22;8829;47.932;7.810;2022-07-17T09:05:30;25.70;85.30
17423;DHT22;8829;47.932;7.810;2022-07-17T09:07:58;25.50;86.20
17423;DHT22;8829;47.932;7.810;2022-07-17T09:10:35;25.40;86.70
17423;DHT22;8829;47.932;7.810;2022-07-17T09:13:14;25.40;87.70
17423;DHT22;8829;47.932;7.810;2022-07-17T09:15:42;25.50;88.10
17423;DHT22;8829;47.932;7.810;2022-07-17T09:18:09;26.20;85.10
17423;DHT22;8829;47.932;7.810;2022-07-17T09:20:43;26.50;84.70
17423;DHT22;8829;47.932;7.810;2022-07-17T09:23:11;26.10;83.50
17423;DHT22;8829;47.932;7.810;2022-07-17T09:25:40;25.60;85.10
17423;DHT22;8829;47.932;7.810;2022-07-17T09:28:10;25.50;85.20
17423;DHT22;8829;47.932;7.810;2022-07-17T09:30:41;25.10;86.50
17423;DHT22;8829;47.932;7.810;2022-07-17T09:33:12;24.80;87.80
17423;DHT22;8829;47.932;7.810;2022-07-17T09:35:46;24.70;88.00
17423;DHT22;8829;47.932;7.810;2022-07-17T09:38:24;24.70;88.70
17423;DHT22;8829;47.932;7.810;2022-07-17T09:41:04;24.70;88.40
17423;DHT22;8829;47.932;7.810;2022-07-17T09:43:39;24.70;87.70
17423;DHT22;8829;47.932;7.810;2022-07-17T09:46:08;24.50;89.00
17423;DHT22;8829;47.932;7.810;2022-07-17T09:48:39;24.70;90.40
17423;DHT22;8829;47.932;7.810;2022-07-17T09:51:09;24.90;88.90
17423;DHT22;8829;47.932;7.810;2022-07-17T09:53:37;24.60;88.90
17423;DHT22;8829;47.932;7.810;2022-07-17T09:56:05;24.40;89.40
17423;DHT22;8829;47.932;7.810;2022-07-17T09:58:35;24.50;89.50
17423;DHT22;8829;47.932;7.810;2022-07-17T10:01:06;24.60;89.10
17423;DHT22;8829;47.932;7.810;2022-07-17T10:03:33;24.60;88.20
17423;DHT22;8829;47.932;7.810;2022-07-17T10:06:00;24.50;90.00
17423;DHT22;8829;47.932;7.810;2022-07-17T10:08:30;24.40;90.10
17423;DHT22;8829;47.932;7.810;2022-07-17T10:10:57;24.60;89.10
17423;DHT22;8829;47.932;7.810;2022-07-17T10:13:25;24.70;89.00
17423;DHT22;8829;47.932;7.810;2022-07-17T10:15:52;24.70;89.10
17423;DHT22;8829;47.932;7.810;2022-07-17T10:18:21;24.80;88.10
17423;DHT22;8829;47.932;7.810;2022-07-17T10:20:48;24.70;87.90
17423;DHT22;8829;47.932;7.810;2022-07-17T10:23:14;24.70;88.90
17423;DHT22;8829;47.932;7.810;2022-07-17T10:25:43;25.00;88.50
17423;DHT22;8829;47.932;7.810;2022-07-17T10:28:09;25.30;86.40
17423;DHT22;8829;47.932;7.810;2022-07-17T10:30:41;25.30;85.90
17423;DHT22;8829;47.932;7.810;2022-07-17T10:33:09;25.30;87.40
17423;DHT22;8829;47.932;7.810;2022-07-17T10:35:45;25.30;85.60
17423;DHT22;8829;47.932;7.810;2022-07-17T10:38:13;25.50;86.20
17423;DHT22;8829;47.932;7.810;2022-07-17T10:40:42;25.50;85.30
17423;DHT22;8829;47.932;7.810;2022-07-17T10:43:10;25.50;87.00
17423;DHT22;8829;47.932;7.810;2022-07-17T10:45:38;25.80;83.60
17423;DHT22;8829;47.932;7.810;2022-07-17T10:48:09;25.80;84.40
17423;DHT22;8829;47.932;7.810;2022-07-17T10:50:37;25.90;83.80
17423;DHT22;8829;47.932;7.810;2022-07-17T10:55:45;25.90;84.20
17423;DHT22;8829;47.932;7.810;2022-07-17T10:58:20;26.00;85.90
17423;DHT22;8829;47.932;7.810;2022-07-17T11:00:58;26.20;84.90
17423;DHT22;8829;47.932;7.810;2022-07-17T11:03:25;26.30;83.80
17423;DHT22;8829;47.932;7.810;2022-07-17T11:05:52;26.30;82.60
17423;DHT22;8829;47.932;7.810;2022-07-17T11:08:20;26.50;83.10
17423;DHT22;8829;47.932;7.810;2022-07-17T11:10:48;26.50;81.20
17423;DHT22;8829;47.932;7.810;2022-07-17T11:13:17;26.40;82.20
17423;DHT22;8829;47.932;7.810;2022-07-17T11:15:46;26.40;81.50
17423;DHT22;8829;47.932;7.810;2022-07-17T11:18:15;26.30;81.80
17423;DHT22;8829;47.932;7.810;2022-07-17T11:20:51;26.50;81.70
17423;DHT22;8829;47.932;7.810;2022-07-17T11:23:19;26.30;81.30
17423;DHT22;8829;47.932;7.810;2022-07-17T11:25:58;26.30;81.40
17423;DHT22;8829;47.932;7.810;2022-07-17T11:28:36;26.30;81.20
17423;DHT22;8829;47.932;7.810;2022-07-17T11:31:15;26.40;81.00
17423;DHT22;8829;47.932;7.810;2022-07-17T11:33:50;26.50;81.10
17423;DHT22;8829;47.932;7.810;2022-07-17T11:36:24;26.60;80.40
17423;DHT22;8829;47.932;7.810;2022-07-17T11:38:52;26.60;81.50
17423;DHT22;8829;47.932;7.810;2022-07-17T11:41:21;26.60;81.00
17423;DHT22;8829;47.932;7.810;2022-07-17T11:43:48;26.50;81.40
17423;DHT22;8829;47.932;7.810;2022-07-17T11:46:15;26.60;81.50
17423;DHT22;8829;47.932;7.810;2022-07-17T11:48:43;26.80;80.50
17423;DHT22;8829;47.932;7.810;2022-07-17T11:51:10;26.80;80.00
17423;DHT22;8829;47.932;7.810;2022-07-17T11:53:38;26.80;80.60
17423;DHT22;8829;47.932;7.810;2022-07-17T11:56:06;26.80;80.90
17423;DHT22;8829;47.932;7.810;2022-07-17T11:58:46;26.80;79.20
17423;DHT22;8829;47.932;7.810;2022-07-17T12:01:14;26.70;79.30
17423;DHT22;8829;47.932;7.810;2022-07-17T12:03:42;26.90;81.40
17423;DHT22;8829;47.932;7.810;2022-07-17T12:06:09;27.10;80.30
17423;DHT22;8829;47.932;7.810;2022-07-17T12:08:36;27.10;79.30
17423;DHT22;8829;47.932;7.810;2022-07-17T12:11:05;27.20;79.00
17423;DHT22;8829;47.932;7.810;2022-07-17T12:13:44;27.10;78.50
17423;DHT22;8829;47.932;7.810;2022-07-17T12:16:26;27.00;78.90
17423;DHT22;8829;47.932;7.810;2022-07-17T12:19:12;27.10;79.40
17423;DHT22;8829;47.932;7.810;2022-07-17T12:21:53;27.00;78.40
17423;DHT22;8829;47.932;7.810;2022-07-17T12:24:24;27.00;79.00
17423;DHT22;8829;47.932;7.810;2022-07-17T12:26:51;27.20;79.30
17423;DHT22;8829;47.932;7.810;2022-07-17T12:29:20;27.30;77.50
17423;DHT22;8829;47.932;7.810;2022-07-17T12:31:47;27.20;78.00
17423;DHT22;8829;47.932;7.810;2022-07-17T12:34:13;27.10;78.20
17423;DHT22;8829;47.932;7.810;2022-07-17T12:36:40;27.30;78.80
17423;DHT22;8829;47.932;7.810;2022-07-17T12:39:07;27.20;77.30
17423;DHT22;8829;47.932;7.810;2022-07-17T12:41:34;27.10;79.70
17423;DHT22;8829;47.932;7.810;2022-07-17T12:44:01;27.30;79.50
17423;DHT22;8829;47.932;7.810;2022-07-17T12:46:29;27.30;77.30
17423;DHT22;8829;47.932;7.810;2022-07-17T12:48:56;27.20;78.70
17423;DHT22;8829;47.932;7.810;2022-07-17T12:51:22;27.30;78.50
17423;DHT22;8829;47.932;7.810;2022-07-17T12:53:49;27.40;78.20
17423;DHT22;8829;47.932;7.810;2022-07-17T12:56:16;27.30;77.20
17423;DHT22;8829;47.932;7.810;2022-07-17T12:58:43;27.40;77.40
17423;DHT22;8829;47.932;7.810;2022-07-17T13:01:10;27.50;78.60
17423;DHT22;8829;47.932;7.810;2022-07-17T13:03:38;27.50;78.50
17423;DHT22;8829;47.932;7.810;2022-07-17T13:06:05;27.60;77.20
17423;DHT22;8829;47.932;7.810;2022-07-17T13:08:32;27.60;76.60
17423;DHT22;8829;47.932;7.810;2022-07-17T13:10:59;27.70;76.50
17423;DHT22;8829;47.932;7.810;2022-07-17T13:13:27;27.60;76.40
17423;DHT22;8829;47.932;7.810;2022-07-17T13:15:54;27.50;76.40
17423;DHT22;8829;47.932;7.810;2022-07-17T13:18:21;27.50;77.30
17423;DHT22;8829;47.932;7.810;2022-07-17T13:20:49;27.60;77.20
17423;DHT22;8829;47.932;7.810;2022-07-17T13:23:16;27.70;77.50
17423;DHT22;8829;47.932;7.810;2022-07-17T13:25:43;27.70;76.60
17423;DHT22;8829;47.932;7.810;2022-07-17T13:28:10;27.80;75.80
17423;DHT22;8829;47.932;7.810;2022-07-17T13:30:37;27.70;76.30
17423;DHT22;8829;47.932;7.810;2022-07-17T13:33:05;27.80;76.90
17423;DHT22;8829;47.932;7.810;2022-07-17T13:35:32;28.00;75.30
17423;DHT22;8829;47.932;7.810;2022-07-17T13:38:00;28.00;76.30
17423;DHT22;8829;47.932;7.810;2022-07-17T13:40:28;28.10;75.90
17423;DHT22;8829;47.932;7.810;2022-07-17T13:42:55;28.10;75.40
17423;DHT22;8829;47.932;7.810;2022-07-17T13:45:22;28.10;74.70
17423;DHT22;8829;47.932;7.810;2022-07-17T13:47:49;28.20;74.20
17423;DHT22;8829;47.932;7.810;2022-07-17T13:50:16;28.10;74.40
17423;DHT22;8829;47.932;7.810;2022-07-17T13:52:43;28.10;75.70
17423;DHT22;8829;47.932;7.810;2022-07-17T13:55:12;28.10;75.30
17423;DHT22;8829;47.932;7.810;2022-07-17T13:57:39;28.20;74.80
17423;DHT22;8829;47.932;7.810;2022-07-17T14:00:07;28.20;74.30
17423;DHT22;8829;47.932;7.810;2022-07-17T14:02:34;28.20;73.70
17423;DHT22;8829;47.932;7.810;2022-07-17T14:05:02;28.20;75.70
17423;DHT22;8829;47.932;7.810;2022-07-17T14:07:29;28.20;74.50
17423;DHT22;8829;47.932;7.810;2022-07-17T14:09:56;28.20;73.70
17423;DHT22;8829;47.932;7.810;2022-07-17T14:12:24;28.20;75.10
17423;DHT22;8829;47.932;7.810;2022-07-17T14:14:50;28.30;74.60
17423;DHT22;8829;47.932;7.810;2022-07-17T14:17:17;28.30;74.30
17423;DHT22;8829;47.932;7.810;2022-07-17T14:19:44;28.40;74.10
17423;DHT22;8829;47.932;7.810;2022-07-17T14:22:11;28.40;72.90
17423;DHT22;8829;47.932;7.810;2022-07-17T14:24:38;28.40;74.40
17423;DHT22;8829;47.932;7.810;2022-07-17T14:27:05;28.40;73.70
17423;DHT22;8829;47.932;7.810;2022-07-17T14:29:33;28.50;73.50
17423;DHT22;8829;47.932;7.810;2022-07-17T14:32:00;28.40;73.60
17423;DHT22;8829;47.932;7.810;2022-07-17T14:34:27;28.40;72.90
17423;DHT22;8829;47.932;7.810;2022-07-17T14:36:54;28.40;74.30
17423;DHT22;8829;47.932;7.810;2022-07-17T14:39:21;28.40;73.00
17423;DHT22;8829;47.932;7.810;2022-07-17T14:41:48;28.40;72.40
17423;DHT22;8829;47.932;7.810;2022-07-17T14:44:15;28.40;73.20
17423;DHT22;8829;47.932;7.810;2022-07-17T14:46:43;28.40;73.90
17423;DHT22;8829;47.932;7.810;2022-07-17T14:49:10;28.40;73.70
17423;DHT22;8829;47.932;7.810;2022-07-17T14:51:37;28.40;72.50
17423;DHT22;8829;47.932;7.810;2022-07-17T14:54:03;28.50;72.40
17423;DHT22;8829;47.932;7.810;2022-07-17T14:56:30;28.50;72.50
17423;DHT22;8829;47.932;7.810;2022-07-17T14:58:57;28.50;71.40
17423;DHT22;8829;47.932;7.810;2022-07-17T15:01:24;28.50;72.30
17423;DHT22;8829;47.932;7.810;2022-07-17T15:03:52;28.40;71.10
17423;DHT22;8829;47.932;7.810;2022-07-17T15:06:19;28.30;71.90
17423;DHT22;8829;47.932;7.810;2022-07-17T15:08:46;28.20;72.00
17423;DHT22;8829;47.932;7.810;2022-07-17T15:11:13;28.30;72.50
17423;DHT22;8829;47.932;7.810;2022-07-17T15:13:39;28.20;71.20
17423;DHT22;8829;47.932;7.810;2022-07-17T15:16:07;28.20;72.00
17423;DHT22;8829;47.932;7.810;2022-07-17T15:18:33;28.30;72.70
17423;DHT22;8829;47.932;7.810;2022-07-17T15:21:02;28.30;72.20
17423;DHT22;8829;47.932;7.810;2022-07-17T15:23:29;28.30;71.70
17423;DHT22;8829;47.932;7.810;2022-07-17T15:25:56;28.30;71.30
17423;DHT22;8829;47.932;7.810;2022-07-17T15:28:23;28.20;71.30
17423;DHT22;8829;47.932;7.810;2022-07-17T15:30:49;28.20;72.10
17423;DHT22;8829;47.932;7.810;2022-07-17T15:33:16;28.30;72.60
17423;DHT22;8829;47.932;7.810;2022-07-17T15:35:43;28.30;72.50
17423;DHT22;8829;47.932;7.810;2022-07-17T15:38:12;28.40;72.20
17423;DHT22;8829;47.932;7.810;2022-07-17T15:40:38;28.40;71.90
17423;DHT22;8829;47.932;7.810;2022-07-17T15:43:05;28.40;72.50
17423;DHT22;8829;47.932;7.810;2022-07-17T15:45:32;28.50;71.70
17423;DHT22;8829;47.932;7.810;2022-07-17T15:47:59;28.40;70.90
17423;DHT22;8829;47.932;7.810;2022-07-17T15:50:26;28.40;71.90
17423;DHT22;8829;47.932;7.810;2022-07-17T15:52:54;28.50;72.10